createdAt,value
2023-05-01T00:00:30.697Z,0.99
2023-05-01T00:01:30.699Z,0.99
2023-05-01T00:02:30.763Z,0.97
2023-05-01T00:03:30.808Z,0.99
2023-05-01T00:04:30.689Z,1.00
2023-05-01T00:05:30.676Z,0.99
2023-05-01T00:06:30.707Z,0.99
2023-05-01T00:07:30.671Z,0.97
2023-05-01T00:08:30.691Z,1.00
2023-05-01T00:09:30.687Z,0.95
2023-05-01T00:10:30.702Z,1.00
2023-05-01T00:11:30.709Z,0.99
2023-05-01T00:12:30.718Z,0.97
2023-05-01T00:13:30.678Z,0.97
2023-05-01T00:14:30.726Z,0.98
2023-05-01T00:15:30.733Z,0.98
2023-05-01T00:16:30.704Z,0.99
2023-05-01T00:17:30.744Z,0.98
2023-05-01T00:18:30.734Z,0.99
2023-05-01T00:19:30.684Z,1.00
2023-05-01T00:20:30.667Z,0.98
2023-05-01T00:21:30.671Z,1.00
2023-05-01T00:22:30.674Z,1.00
2023-05-01T00:23:30.687Z,1.01
2023-05-01T00:24:30.692Z,0.99
2023-05-01T00:25:30.657Z,0.98
2023-05-01T00:26:30.667Z,0.99
2023-05-01T00:27:30.721Z,1.00
2023-05-01T00:28:30.687Z,1.00
2023-05-01T00:29:30.679Z,1.00
2023-05-01T00:30:30.689Z,1.00
2023-05-01T00:31:30.687Z,1.01
2023-05-01T00:32:30.732Z,1.00
2023-05-01T00:33:30.706Z,1.01
2023-05-01T00:34:30.706Z,0.99
2023-05-01T00:35:30.768Z,1.00
2023-05-01T00:36:30.735Z,1.00
2023-05-01T00:37:30.733Z,1.01
2023-05-01T00:38:30.702Z,1.00
2023-05-01T00:39:30.708Z,0.98
2023-05-01T00:40:30.711Z,1.00
2023-05-01T00:41:30.706Z,0.99
2023-05-01T00:42:30.678Z,1.01
2023-05-01T00:43:30.678Z,1.00
2023-05-01T00:44:30.744Z,1.00
2023-05-01T00:45:30.756Z,1.00
2023-05-01T00:46:30.702Z,1.01
2023-05-01T00:47:30.744Z,1.00
2023-05-01T00:48:30.723Z,1.00
2023-05-01T00:49:30.687Z,1.00
2023-05-01T00:50:30.700Z,1.01
2023-05-01T00:51:30.708Z,0.98
2023-05-01T00:52:30.738Z,1.02
2023-05-01T00:53:30.761Z,1.03
2023-05-01T00:54:30.710Z,1.01
2023-05-01T00:55:30.703Z,1.01
2023-05-01T00:56:30.727Z,1.00
2023-05-01T00:57:30.724Z,0.99
2023-05-01T00:58:30.724Z,1.01
2023-05-01T00:59:30.729Z,1.01
2023-05-01T01:00:30.738Z,0.99
2023-05-01T01:01:30.812Z,1.02
2023-05-01T01:02:30.738Z,1.00
2023-05-01T01:03:30.751Z,1.02
2023-05-01T01:04:30.790Z,0.99
2023-05-01T01:05:30.767Z,1.01
2023-05-01T01:06:30.800Z,1.00
2023-05-01T01:07:30.772Z,1.02
2023-05-01T01:08:32.535Z,1.01
2023-05-01T01:09:30.801Z,1.01
2023-05-01T01:10:30.756Z,1.00
2023-05-01T01:11:30.811Z,1.00
2023-05-01T01:12:30.826Z,1.01
2023-05-01T01:13:30.836Z,1.00
2023-05-01T01:14:30.783Z,1.01
2023-05-01T01:15:30.825Z,1.01
2023-05-01T01:16:30.869Z,1.02
2023-05-01T01:17:30.869Z,1.03
2023-05-01T01:18:30.807Z,1.01
2023-05-01T01:19:30.800Z,1.02
2023-05-01T01:20:30.826Z,0.99
2023-05-01T01:21:30.831Z,1.02
2023-05-01T01:22:30.834Z,1.03
2023-05-01T01:23:30.838Z,1.01
2023-05-01T01:24:30.820Z,1.02
2023-05-01T01:25:30.912Z,1.02
2023-05-01T01:26:30.866Z,1.03
2023-05-01T01:27:30.876Z,1.00
2023-05-01T01:28:30.877Z,1.04
2023-05-01T01:29:30.858Z,1.03
2023-05-01T01:30:31.244Z,1.02
2023-05-01T01:31:30.919Z,1.02
2023-05-01T01:32:30.956Z,1.02
2023-05-01T01:33:30.888Z,1.01
2023-05-01T01:34:30.962Z,1.02
2023-05-01T01:35:30.931Z,1.02
2023-05-01T01:36:30.936Z,1.03
2023-05-01T01:37:30.935Z,1.02
2023-05-01T01:38:31.010Z,1.02
2023-05-01T01:39:31.005Z,1.01
2023-05-01T01:40:31.010Z,1.01
2023-05-01T01:41:30.968Z,1.03
2023-05-01T01:42:31.026Z,1.02
2023-05-01T01:43:30.982Z,1.01
2023-05-01T01:44:30.981Z,1.01
2023-05-01T01:45:31.063Z,1.01
2023-05-01T01:46:31.142Z,1.03
2023-05-01T01:47:31.132Z,1.02
2023-05-01T01:48:31.132Z,1.02
2023-05-01T01:49:31.126Z,1.02
2023-05-01T01:50:31.181Z,1.01
2023-05-01T01:51:31.121Z,1.02
2023-05-01T01:52:31.150Z,1.02
2023-05-01T01:53:31.119Z,1.01
2023-05-01T01:54:31.153Z,1.01
2023-05-01T01:55:31.283Z,1.04
2023-05-01T01:56:31.209Z,1.02
2023-05-01T01:57:31.171Z,1.01
2023-05-01T01:58:31.243Z,1.02
2023-05-01T01:59:31.246Z,1.04
2023-05-01T02:00:31.250Z,1.01
2023-05-01T02:01:31.353Z,1.05
2023-05-01T02:02:31.353Z,1.03
2023-05-01T02:03:31.400Z,1.01
2023-05-01T02:04:31.303Z,1.02
2023-05-01T02:05:31.344Z,1.00
2023-05-01T02:06:31.400Z,1.02
2023-05-01T02:07:31.322Z,1.02
2023-05-01T02:08:31.330Z,1.03
2023-05-01T02:09:31.365Z,1.02
2023-05-01T02:10:31.372Z,1.03
2023-05-01T02:11:31.385Z,1.03
2023-05-01T02:12:31.434Z,1.04
2023-05-01T02:13:31.435Z,1.04
2023-05-01T02:14:31.455Z,1.04
2023-05-01T02:15:31.450Z,1.03
2023-05-01T02:16:31.549Z,1.04
2023-05-01T02:17:31.669Z,1.03
2023-05-01T02:18:31.540Z,1.01
2023-05-01T02:19:31.579Z,1.03
2023-05-01T02:20:31.592Z,1.05
2023-05-01T02:21:31.601Z,1.05
2023-05-01T02:22:31.610Z,1.04
2023-05-01T02:23:31.670Z,1.04
2023-05-01T02:24:31.678Z,1.01
2023-05-01T02:25:31.686Z,1.05
2023-05-01T02:26:31.747Z,1.03
2023-05-01T02:27:31.701Z,1.02
2023-05-01T02:28:31.706Z,1.04
2023-05-01T02:29:31.767Z,1.04
2023-05-01T02:30:31.769Z,1.03
2023-05-01T02:31:31.783Z,1.04
2023-05-01T02:32:31.821Z,1.05
2023-05-01T02:33:31.789Z,1.03
2023-05-01T02:34:31.937Z,1.04
2023-05-01T02:35:31.850Z,1.05
2023-05-01T02:36:31.851Z,1.03
2023-05-01T02:37:31.854Z,1.03
2023-05-01T02:38:31.930Z,1.01
2023-05-01T02:39:31.932Z,1.02
2023-05-01T02:40:31.961Z,1.04
2023-05-01T02:41:31.945Z,1.03
2023-05-01T02:42:31.972Z,1.04
2023-05-01T02:43:31.952Z,1.04
2023-05-01T02:44:32.010Z,1.05
2023-05-01T02:45:32.074Z,1.02
2023-05-01T02:46:32.055Z,1.04
2023-05-01T02:47:32.141Z,1.04
2023-05-01T02:48:32.097Z,1.06
2023-05-01T02:49:32.102Z,1.05
2023-05-01T02:50:32.155Z,1.04
2023-05-01T02:51:32.135Z,1.04
2023-05-01T02:52:32.181Z,1.04
2023-05-01T02:53:32.185Z,1.04
2023-05-01T02:54:32.228Z,1.04
2023-05-01T02:55:32.256Z,1.03
2023-05-01T02:56:32.259Z,1.04
2023-05-01T02:57:32.260Z,1.04
2023-05-01T02:58:32.317Z,1.03
2023-05-01T02:59:32.427Z,1.03
2023-05-01T03:00:32.332Z,1.05
2023-05-01T03:01:32.388Z,1.04
2023-05-01T03:02:32.517Z,1.04
2023-05-01T03:03:32.416Z,1.05
2023-05-01T03:04:32.470Z,1.05
2023-05-01T03:05:32.474Z,1.04
2023-05-01T03:06:32.583Z,1.03
2023-05-01T03:07:32.543Z,1.04
2023-05-01T03:08:32.496Z,1.05
2023-05-01T03:09:32.562Z,1.05
2023-05-01T03:10:32.552Z,1.03
2023-05-01T03:11:32.571Z,1.02
2023-05-01T03:12:32.612Z,1.04
2023-05-01T03:13:32.628Z,1.05
2023-05-01T03:14:32.610Z,1.03
2023-05-01T03:15:32.691Z,1.04
2023-05-01T03:16:32.737Z,1.05
2023-05-01T03:17:32.763Z,1.05
2023-05-01T03:18:32.761Z,1.04
2023-05-01T03:19:32.762Z,1.05
2023-05-01T03:20:32.822Z,1.06
2023-05-01T03:21:32.828Z,1.05
2023-05-01T03:22:32.832Z,1.05
2023-05-01T03:23:32.897Z,1.04
2023-05-01T03:24:32.897Z,1.05
2023-05-01T03:25:32.904Z,1.05
2023-05-01T03:26:32.991Z,1.05
2023-05-01T03:27:32.973Z,1.05
2023-05-01T03:28:32.976Z,1.04
2023-05-01T03:29:33.031Z,1.04
2023-05-01T03:30:33.045Z,1.03
2023-05-01T03:31:33.126Z,1.05
2023-05-01T03:32:33.143Z,1.03
2023-05-01T03:33:33.119Z,1.05
2023-05-01T03:34:33.184Z,1.05
2023-05-01T03:35:33.209Z,1.06
2023-05-01T03:36:33.189Z,1.04
2023-05-01T03:37:33.237Z,1.05
2023-05-01T03:38:33.246Z,1.07
2023-05-01T03:39:33.319Z,1.05
2023-05-01T03:40:33.310Z,1.05
2023-05-01T03:41:33.352Z,1.03
2023-05-01T03:42:33.361Z,1.04
2023-05-01T03:43:33.387Z,1.06
2023-05-01T03:44:33.442Z,1.05
2023-05-01T03:45:33.419Z,1.04
2023-05-01T03:46:33.557Z,1.03
2023-05-01T03:47:33.578Z,1.06
2023-05-01T03:48:33.525Z,1.05
2023-05-01T03:49:33.547Z,1.06
2023-05-01T03:50:33.611Z,1.04
2023-05-01T03:51:33.590Z,1.05
2023-05-01T03:52:33.591Z,1.06
2023-05-01T03:53:33.660Z,1.05
2023-05-01T03:54:33.654Z,1.06
2023-05-01T03:55:33.741Z,1.05
2023-05-01T03:56:33.725Z,1.06
2023-05-01T03:57:33.732Z,1.05
2023-05-01T03:58:33.796Z,1.05
2023-05-01T03:59:34.573Z,1.05
2023-05-01T04:00:33.804Z,1.04
2023-05-01T04:01:33.829Z,1.06
2023-05-01T04:02:33.966Z,1.06
2023-05-01T04:03:33.947Z,1.04
2023-05-01T04:04:34.001Z,1.04
2023-05-01T04:05:33.956Z,1.00
2023-05-01T04:06:33.992Z,0.97
2023-05-01T04:07:34.017Z,0.95
2023-05-01T04:08:34.022Z,0.93
2023-05-01T04:09:34.073Z,0.91
2023-05-01T04:10:34.077Z,0.89
2023-05-01T04:11:34.085Z,0.88
2023-05-01T04:12:34.159Z,0.87
2023-05-01T04:13:34.213Z,0.84
2023-05-01T04:14:34.217Z,0.83
2023-05-01T04:15:34.226Z,0.80
2023-05-01T04:16:34.372Z,0.80
2023-05-01T04:17:34.374Z,0.78
2023-05-01T04:18:34.340Z,0.76
2023-05-01T04:19:34.370Z,0.75
2023-05-01T04:20:34.421Z,0.73
2023-05-01T04:21:34.478Z,0.73
2023-05-01T04:22:34.474Z,0.71
2023-05-01T04:23:34.480Z,0.70
2023-05-01T04:24:34.552Z,0.68
2023-05-01T04:25:34.603Z,0.67
2023-05-01T04:26:34.653Z,0.67
2023-05-01T04:27:34.666Z,0.66
2023-05-01T04:28:34.708Z,0.65
2023-05-01T04:29:34.718Z,0.64
2023-05-01T04:30:34.778Z,0.63
2023-05-01T04:31:34.942Z,0.61
2023-05-01T04:32:34.919Z,0.62
2023-05-01T04:33:34.989Z,0.61
2023-05-01T04:34:34.964Z,0.62
2023-05-01T04:35:35.017Z,0.61
2023-05-01T04:36:35.064Z,0.62
2023-05-01T04:37:35.078Z,0.62
2023-05-01T04:38:35.136Z,0.61
2023-05-01T04:39:35.210Z,0.62
2023-05-01T04:40:35.225Z,0.62
2023-05-01T04:41:35.265Z,0.61
2023-05-01T04:42:35.313Z,0.61
2023-05-01T04:43:35.409Z,0.62
2023-05-01T04:44:35.386Z,0.61
2023-05-01T04:45:35.391Z,0.62
2023-05-01T04:46:35.578Z,0.62
2023-05-01T04:47:35.517Z,0.63
2023-05-01T04:48:35.574Z,0.62
2023-05-01T04:49:35.576Z,0.62
2023-05-01T04:50:35.624Z,0.62
2023-05-01T04:51:35.730Z,0.62
2023-05-01T04:52:35.706Z,0.62
2023-05-01T04:53:35.718Z,0.62
2023-05-01T04:54:35.759Z,0.63
2023-05-01T04:55:35.785Z,0.62
2023-05-01T04:56:35.843Z,0.63
2023-05-01T04:57:35.889Z,0.62
2023-05-01T04:58:35.903Z,0.63
2023-05-01T04:59:35.952Z,0.63
2023-05-01T05:00:35.964Z,0.63
2023-05-01T05:01:36.043Z,0.63
2023-05-01T05:02:36.088Z,0.64
2023-05-01T05:03:36.210Z,0.64
2023-05-01T05:04:36.090Z,0.64
2023-05-01T05:05:36.125Z,0.63
2023-05-01T05:06:36.204Z,0.64
2023-05-01T05:07:36.210Z,0.64
2023-05-01T05:08:36.237Z,0.64
2023-05-01T05:09:36.288Z,0.64
2023-05-01T05:10:36.278Z,0.64
2023-05-01T05:11:36.310Z,0.64
2023-05-01T05:12:36.401Z,0.65
2023-05-01T05:13:36.356Z,0.65
2023-05-01T05:14:36.361Z,0.65
2023-05-01T05:15:36.451Z,0.65
2023-05-01T05:16:36.437Z,0.66
2023-05-01T05:17:36.574Z,0.65
2023-05-01T05:18:36.503Z,0.66
2023-05-01T05:19:36.520Z,0.65
2023-05-01T05:20:36.497Z,0.65
2023-05-01T05:21:36.585Z,0.65
2023-05-01T05:22:36.571Z,0.66
2023-05-01T05:23:36.630Z,0.66
2023-05-01T05:24:36.636Z,0.66
2023-05-01T05:25:36.656Z,0.66
2023-05-01T05:26:36.782Z,0.66
2023-05-01T05:27:36.704Z,0.67
2023-05-01T05:28:36.716Z,0.66
2023-05-01T05:29:36.715Z,0.66
2023-05-01T05:30:36.789Z,0.67
2023-05-01T05:31:36.806Z,0.66
2023-05-01T05:32:36.804Z,0.67
2023-05-01T05:33:36.791Z,0.67
2023-05-01T05:34:36.857Z,0.67
2023-05-01T05:35:36.864Z,0.66
2023-05-01T05:36:36.871Z,0.67
2023-05-01T05:37:36.991Z,0.67
2023-05-01T05:38:36.938Z,0.67
2023-05-01T05:39:36.944Z,0.68
2023-05-01T05:40:36.953Z,0.68
2023-05-01T05:41:36.978Z,0.69
2023-05-01T05:42:37.014Z,0.68
2023-05-01T05:43:37.017Z,0.69
2023-05-01T05:44:37.805Z,0.70
2023-05-01T05:45:37.161Z,0.69
2023-05-01T05:46:37.101Z,0.69
2023-05-01T05:47:37.159Z,0.69
2023-05-01T05:48:37.108Z,0.68
2023-05-01T05:49:37.134Z,0.69
2023-05-01T05:50:37.168Z,0.69
2023-05-01T05:51:37.205Z,0.70
2023-05-01T05:52:37.179Z,0.69
2023-05-01T05:53:37.236Z,0.69
2023-05-01T05:54:37.250Z,0.69
2023-05-01T05:55:37.309Z,0.70
2023-05-01T05:56:37.309Z,0.70
2023-05-01T05:57:37.324Z,0.71
2023-05-01T05:58:37.322Z,0.70
2023-05-01T05:59:37.331Z,0.69
2023-05-01T06:00:37.346Z,0.71
2023-05-01T06:01:37.400Z,0.71
2023-05-01T06:02:37.519Z,0.70
2023-05-01T06:03:37.480Z,0.70
2023-05-01T06:04:37.434Z,0.70
2023-05-01T06:05:37.471Z,0.71
2023-05-01T06:06:37.496Z,0.72
2023-05-01T06:07:37.496Z,0.71
2023-05-01T06:08:37.500Z,0.70
2023-05-01T06:09:37.514Z,0.71
2023-05-01T06:10:37.594Z,0.71
2023-05-01T06:11:37.581Z,0.72
2023-05-01T06:12:38.603Z,0.72
2023-05-01T06:13:37.592Z,0.74
2023-05-01T06:14:37.595Z,0.72
2023-05-01T06:15:37.629Z,0.72
2023-05-01T06:16:37.724Z,0.71
2023-05-01T06:17:37.631Z,0.73
2023-05-01T06:18:37.576Z,0.73
2023-05-01T06:19:37.584Z,0.72
2023-05-01T06:20:37.545Z,0.73
2023-05-01T06:21:37.546Z,0.73
2023-05-01T06:22:37.542Z,0.72
2023-05-01T06:23:37.520Z,0.73
2023-05-01T06:24:37.524Z,0.74
2023-05-01T06:25:37.540Z,0.73
2023-05-01T06:26:37.494Z,0.74
2023-05-01T06:27:37.497Z,0.74
2023-05-01T06:28:37.492Z,0.74
2023-05-01T06:29:37.519Z,0.73
2023-05-01T06:30:37.518Z,0.74
2023-05-01T06:31:37.462Z,0.73
2023-05-01T06:32:37.513Z,0.74
2023-05-01T06:33:37.461Z,0.73
2023-05-01T06:34:37.428Z,0.74
2023-05-01T06:35:37.484Z,0.73
2023-05-01T06:36:37.438Z,0.72
2023-05-01T06:37:37.442Z,0.74
2023-05-01T06:38:37.446Z,0.73
2023-05-01T06:39:37.395Z,0.73
2023-05-01T06:40:37.409Z,0.74
2023-05-01T06:41:37.413Z,0.73
2023-05-01T06:42:37.382Z,0.73
2023-05-01T06:43:37.401Z,0.74
2023-05-01T06:44:37.384Z,0.74
2023-05-01T06:45:37.343Z,0.73
2023-05-01T06:46:37.454Z,0.74
2023-05-01T06:47:37.379Z,0.74
2023-05-01T06:48:37.363Z,0.74
2023-05-01T06:49:37.358Z,0.74
2023-05-01T06:50:37.318Z,0.75
2023-05-01T06:51:37.324Z,0.75
2023-05-01T06:52:37.381Z,0.75
2023-05-01T06:53:37.297Z,0.74
2023-05-01T06:54:37.293Z,0.75
2023-05-01T06:55:37.309Z,0.74
2023-05-01T06:56:37.306Z,0.76
2023-05-01T06:57:37.287Z,0.76
2023-05-01T06:58:37.275Z,0.76
2023-05-01T06:59:37.282Z,0.76
2023-05-01T07:00:37.300Z,0.77
2023-05-01T07:01:37.279Z,0.76
2023-05-01T07:02:37.389Z,0.77
2023-05-01T07:03:37.312Z,0.75
2023-05-01T07:04:39.828Z,0.78
2023-05-01T07:05:37.428Z,0.77
2023-05-01T07:06:37.513Z,0.76
2023-05-01T07:07:38.947Z,0.77
2023-05-01T07:08:37.458Z,0.77
2023-05-01T07:09:37.463Z,0.77
2023-05-01T07:10:38.719Z,0.77
2023-05-01T07:11:37.413Z,0.79
2023-05-01T07:12:37.439Z,0.79
2023-05-01T07:13:37.426Z,0.77
2023-05-01T07:14:37.398Z,0.77
2023-05-01T07:15:37.399Z,0.78
2023-05-01T07:16:37.508Z,0.77
2023-05-01T07:17:37.460Z,0.78
2023-05-01T07:18:37.358Z,0.78
2023-05-01T07:19:37.390Z,0.77
2023-05-01T07:20:37.864Z,0.77
2023-05-01T07:21:37.332Z,0.78
2023-05-01T07:22:37.341Z,0.78
2023-05-01T07:23:37.344Z,0.79
2023-05-01T07:24:37.361Z,0.78
2023-05-01T07:25:37.322Z,0.78
2023-05-01T07:26:37.307Z,0.77
2023-05-01T07:27:37.320Z,0.78
2023-05-01T07:28:37.320Z,0.78
2023-05-01T07:29:37.282Z,0.79
2023-05-01T07:30:37.289Z,0.79
2023-05-01T07:31:37.326Z,0.78
2023-05-01T07:32:37.278Z,0.78
2023-05-01T07:33:37.287Z,0.78
2023-05-01T07:34:37.273Z,0.79
2023-05-01T07:35:37.277Z,0.79
2023-05-01T07:36:37.244Z,0.79
2023-05-01T07:37:37.237Z,0.79
2023-05-01T07:38:37.248Z,0.79
2023-05-01T07:39:37.264Z,0.79
2023-05-01T07:40:37.208Z,0.80
2023-05-01T07:41:37.210Z,0.79
2023-05-01T07:42:37.206Z,0.79
2023-05-01T07:43:37.183Z,0.79
2023-05-01T07:44:37.192Z,0.80
2023-05-01T07:45:37.176Z,0.80
2023-05-01T07:46:37.206Z,0.80
2023-05-01T07:47:37.185Z,0.80
2023-05-01T07:48:38.919Z,0.79
2023-05-01T07:49:37.157Z,0.81
2023-05-01T07:50:37.170Z,0.82
2023-05-01T07:51:37.177Z,0.80
2023-05-01T07:52:37.140Z,0.81
2023-05-01T07:53:37.149Z,0.78
2023-05-01T07:54:37.085Z,0.81
2023-05-01T07:55:37.115Z,0.81
2023-05-01T07:56:37.116Z,0.80
2023-05-01T07:57:37.109Z,0.79
2023-05-01T07:58:37.130Z,0.81
2023-05-01T07:59:37.151Z,0.80
2023-05-01T08:00:37.085Z,0.80
2023-05-01T08:01:37.092Z,0.79
2023-05-01T08:02:37.191Z,0.78
2023-05-01T08:03:37.148Z,0.77
2023-05-01T08:04:37.148Z,0.81
2023-05-01T08:05:37.074Z,0.79
2023-05-01T08:06:37.166Z,0.82
2023-05-01T08:07:37.025Z,0.78
2023-05-01T08:08:37.016Z,0.81
2023-05-01T08:09:37.027Z,0.79
2023-05-01T08:10:37.056Z,0.76
2023-05-01T08:11:37.103Z,0.78
2023-05-01T08:12:37.173Z,0.78
2023-05-01T08:13:37.221Z,0.77
2023-05-01T08:14:37.288Z,0.79
2023-05-01T08:15:37.368Z,0.79
2023-05-01T08:16:37.451Z,0.79
2023-05-01T08:17:37.471Z,0.83
2023-05-01T08:18:37.500Z,0.79
2023-05-01T08:19:37.566Z,0.83
2023-05-01T08:20:37.635Z,0.79
2023-05-01T08:21:37.726Z,0.84
2023-05-01T08:22:37.751Z,0.81
2023-05-01T08:23:37.804Z,0.81
2023-05-01T08:24:37.870Z,0.85
2023-05-01T08:25:37.919Z,0.79
2023-05-01T08:26:37.982Z,0.83
2023-05-01T08:27:38.027Z,0.83
2023-05-01T08:28:38.095Z,0.80
2023-05-01T08:29:38.161Z,0.83
2023-05-01T08:30:38.226Z,0.82
2023-05-01T08:31:38.288Z,0.81
2023-05-01T08:32:38.375Z,0.84
2023-05-01T08:33:38.362Z,0.79
2023-05-01T08:34:38.468Z,0.79
2023-05-01T08:35:38.472Z,0.79
2023-05-01T08:36:38.510Z,0.84
2023-05-01T08:37:38.557Z,0.85
2023-05-01T08:38:38.627Z,0.82
2023-05-01T08:39:38.697Z,0.80
2023-05-01T08:40:38.729Z,0.81
2023-05-01T08:41:38.810Z,0.86
2023-05-01T08:42:38.922Z,0.82
2023-05-01T08:43:38.854Z,0.84
2023-05-01T08:44:38.943Z,0.82
2023-05-01T08:45:38.967Z,0.81
2023-05-01T08:46:39.135Z,0.85
2023-05-01T08:47:39.128Z,0.89
2023-05-01T08:48:39.095Z,0.82
2023-05-01T08:49:39.183Z,0.88
2023-05-01T08:50:39.212Z,0.85
2023-05-01T08:51:39.264Z,0.83
2023-05-01T08:52:39.299Z,0.83
2023-05-01T08:53:39.338Z,0.84
2023-05-01T08:54:39.410Z,0.82
2023-05-01T08:55:39.405Z,0.83
2023-05-01T08:56:39.463Z,0.83
2023-05-01T08:57:39.464Z,0.85
2023-05-01T08:58:39.548Z,0.83
2023-05-01T08:59:39.581Z,0.84
2023-05-01T09:00:39.644Z,0.82
2023-05-01T09:01:39.659Z,0.84
2023-05-01T09:02:39.746Z,0.85
2023-05-01T09:03:39.722Z,0.85
2023-05-01T09:04:39.849Z,0.85
2023-05-01T09:05:39.821Z,0.87
2023-05-01T09:06:39.850Z,0.83
2023-05-01T09:07:39.905Z,0.83
2023-05-01T09:08:39.903Z,0.84
2023-05-01T09:09:39.950Z,0.84
2023-05-01T09:10:39.959Z,0.84
2023-05-01T09:11:40.034Z,0.85
2023-05-01T09:12:40.041Z,0.85
2023-05-01T09:13:40.065Z,0.84
2023-05-01T09:14:40.094Z,0.84
2023-05-01T09:15:40.140Z,0.85
2023-05-01T09:16:40.161Z,0.84
2023-05-01T09:17:40.252Z,0.85
2023-05-01T09:18:40.244Z,0.87
2023-05-01T09:19:40.275Z,0.86
2023-05-01T09:20:40.285Z,0.86
2023-05-01T09:21:40.358Z,0.85
2023-05-01T09:22:40.377Z,0.87
2023-05-01T09:23:40.400Z,0.86
2023-05-01T09:24:40.415Z,0.86
2023-05-01T09:25:40.475Z,0.86
2023-05-01T09:26:40.479Z,0.86
2023-05-01T09:27:40.537Z,0.86
2023-05-01T09:28:40.539Z,0.87
2023-05-01T09:29:40.628Z,0.87
2023-05-01T09:30:40.626Z,0.87
2023-05-01T09:31:40.752Z,0.86
2023-05-01T09:32:42.589Z,0.86
2023-05-01T09:33:40.732Z,0.87
2023-05-01T09:34:40.764Z,0.86
2023-05-01T09:35:40.794Z,0.87
2023-05-01T09:36:40.849Z,0.88
2023-05-01T09:37:40.863Z,0.86
2023-05-01T09:38:40.872Z,0.88
2023-05-01T09:39:40.930Z,0.86
2023-05-01T09:40:40.957Z,0.88
2023-05-01T09:41:40.992Z,0.88
2023-05-01T09:42:41.062Z,0.87
2023-05-01T09:43:41.065Z,0.88
2023-05-01T09:44:41.054Z,0.87
2023-05-01T09:45:41.127Z,0.88
2023-05-01T09:46:41.173Z,0.86
2023-05-01T09:47:41.259Z,0.88
2023-05-01T09:48:41.245Z,0.87
2023-05-01T09:49:41.225Z,0.88
2023-05-01T09:50:41.262Z,0.89
2023-05-01T09:51:41.282Z,0.90
2023-05-01T09:52:41.325Z,0.89
2023-05-01T09:53:41.324Z,0.87
2023-05-01T09:54:41.348Z,0.89
2023-05-01T09:55:41.364Z,0.88
2023-05-01T09:56:41.400Z,0.88
2023-05-01T09:57:41.413Z,0.89
2023-05-01T09:58:41.429Z,0.91
2023-05-01T09:59:41.480Z,0.89
2023-05-01T10:00:41.480Z,0.89
2023-05-01T10:01:41.682Z,0.88
2023-05-01T10:02:41.634Z,0.88
2023-05-01T10:03:41.758Z,0.88
2023-05-01T10:04:41.630Z,0.88
2023-05-01T10:05:41.616Z,0.90
2023-05-01T10:06:41.676Z,0.88
2023-05-01T10:07:41.620Z,0.88
2023-05-01T10:08:41.639Z,0.89
2023-05-01T10:09:41.708Z,0.88
2023-05-01T10:10:41.713Z,0.89
2023-05-01T10:11:41.715Z,0.89
2023-05-01T10:12:41.726Z,0.88
2023-05-01T10:13:41.754Z,0.90
2023-05-01T10:14:41.788Z,0.90
2023-05-01T10:15:41.795Z,0.89
2023-05-01T10:16:41.839Z,0.87
2023-05-01T10:17:41.812Z,0.90
2023-05-01T10:18:41.825Z,0.89
2023-05-01T10:19:41.832Z,0.90
2023-05-01T10:20:41.887Z,0.89
2023-05-01T10:21:41.892Z,0.89
2023-05-01T10:22:41.957Z,0.88
2023-05-01T10:23:41.939Z,0.89
2023-05-01T10:24:41.960Z,0.88
2023-05-01T10:25:42.005Z,0.90
2023-05-01T10:26:42.035Z,0.89
2023-05-01T10:27:42.035Z,0.90
2023-05-01T10:28:42.027Z,0.91
2023-05-01T10:29:42.038Z,0.88
2023-05-01T10:30:42.053Z,0.89
2023-05-01T10:31:42.817Z,0.88
2023-05-01T10:32:42.195Z,0.92
2023-05-01T10:33:42.037Z,0.90
2023-05-01T10:34:42.097Z,0.89
2023-05-01T10:35:42.105Z,0.91
2023-05-01T10:36:42.103Z,0.90
2023-05-01T10:37:42.144Z,0.90
2023-05-01T10:38:42.148Z,0.91
2023-05-01T10:39:42.196Z,0.90
2023-05-01T10:40:42.168Z,0.92
2023-05-01T10:41:42.172Z,0.91
2023-05-01T10:42:42.221Z,0.92
2023-05-01T10:43:42.197Z,0.92
2023-05-01T10:44:42.212Z,0.90
2023-05-01T10:45:42.158Z,0.92
2023-05-01T10:46:42.279Z,0.92
2023-05-01T10:47:42.192Z,0.90
2023-05-01T10:48:42.184Z,0.90
2023-05-01T10:49:42.224Z,0.93
2023-05-01T10:50:42.190Z,0.92
2023-05-01T10:51:42.212Z,0.90
2023-05-01T10:52:42.200Z,0.92
2023-05-01T10:53:42.170Z,0.93
2023-05-01T10:54:42.224Z,0.92
2023-05-01T10:55:42.210Z,0.93
2023-05-01T10:56:42.197Z,0.91
2023-05-01T10:57:42.177Z,0.91
2023-05-01T10:58:42.207Z,0.92
2023-05-01T10:59:42.191Z,0.91
2023-05-01T11:00:42.214Z,0.92
2023-05-01T11:01:42.229Z,0.93
2023-05-01T11:02:42.239Z,0.93
2023-05-01T11:03:42.220Z,0.92
2023-05-01T11:04:42.195Z,0.92
2023-05-01T11:05:42.296Z,0.93
2023-05-01T11:06:42.356Z,0.92
2023-05-01T11:07:42.198Z,0.94
2023-05-01T11:08:42.214Z,0.93
2023-05-01T11:09:42.189Z,0.92
2023-05-01T11:10:42.168Z,0.95
2023-05-01T11:11:42.188Z,0.95
2023-05-01T11:12:42.175Z,0.93
2023-05-01T11:13:42.191Z,0.94
2023-05-01T11:14:42.197Z,0.94
2023-05-01T11:15:42.194Z,0.93
2023-05-01T11:16:42.699Z,0.93
2023-05-01T11:17:42.687Z,0.93
2023-05-01T11:18:42.278Z,0.91
2023-05-01T11:19:42.301Z,0.94
2023-05-01T11:20:42.334Z,0.92
2023-05-01T11:21:42.400Z,0.93
2023-05-01T11:22:42.422Z,0.93
2023-05-01T11:23:42.453Z,0.93
2023-05-01T11:24:42.514Z,0.93
2023-05-01T11:25:42.577Z,0.95
2023-05-01T11:26:42.650Z,0.92
2023-05-01T11:27:42.637Z,0.95
2023-05-01T11:28:42.684Z,0.94
2023-05-01T11:29:42.710Z,0.94
2023-05-01T11:30:42.772Z,0.92
2023-05-01T11:31:42.841Z,0.95
2023-05-01T11:32:42.947Z,0.94
2023-05-01T11:33:42.877Z,0.95
2023-05-01T11:34:42.949Z,0.93
2023-05-01T11:35:42.967Z,0.94
2023-05-01T11:36:43.010Z,0.94
2023-05-01T11:37:43.066Z,0.94
2023-05-01T11:38:43.139Z,0.96
2023-05-01T11:39:43.189Z,0.96
2023-05-01T11:40:43.207Z,0.95
2023-05-01T11:41:43.299Z,0.92
2023-05-01T11:42:43.311Z,0.96
2023-05-01T11:43:43.367Z,0.94
2023-05-01T11:44:43.400Z,0.96
2023-05-01T11:45:43.422Z,0.94
2023-05-01T11:46:43.435Z,0.93
2023-05-01T11:47:43.523Z,0.96
2023-05-01T11:48:43.468Z,0.94
2023-05-01T11:49:43.529Z,0.93
2023-05-01T11:50:43.562Z,0.93
2023-05-01T11:51:43.626Z,0.95
2023-05-01T11:52:43.703Z,0.95
2023-05-01T11:53:43.796Z,0.94
2023-05-01T11:54:43.876Z,0.94
2023-05-01T11:55:43.912Z,0.95
2023-05-01T11:56:43.999Z,0.95
2023-05-01T11:57:43.996Z,0.98
2023-05-01T11:58:44.088Z,0.95
2023-05-01T11:59:44.189Z,0.94
2023-05-01T12:00:44.193Z,0.94
2023-05-01T12:01:44.280Z,0.94
2023-05-01T12:02:44.363Z,0.95
2023-05-01T12:03:44.519Z,0.95
2023-05-01T12:04:44.500Z,0.94
2023-05-01T12:05:44.632Z,0.97
2023-05-01T12:06:44.648Z,0.94
2023-05-01T12:07:44.602Z,0.95
2023-05-01T12:08:44.718Z,0.95
2023-05-01T12:09:44.776Z,0.96
2023-05-01T12:10:44.839Z,0.97
2023-05-01T12:11:44.893Z,1.00
2023-05-01T12:12:44.940Z,0.98
2023-05-01T12:13:45.019Z,0.95
2023-05-01T12:14:45.060Z,0.97
2023-05-01T12:15:45.221Z,0.96
2023-05-01T12:16:45.185Z,0.95
2023-05-01T12:17:45.222Z,0.95
2023-05-01T12:18:45.276Z,0.95
2023-05-01T12:19:45.415Z,0.97
2023-05-01T12:20:45.385Z,0.97
2023-05-01T12:21:45.490Z,1.00
2023-05-01T12:22:45.541Z,0.97
2023-05-01T12:23:45.584Z,0.98
2023-05-01T12:24:45.650Z,1.00
2023-05-01T12:25:45.697Z,0.99
2023-05-01T12:26:45.750Z,0.95
2023-05-01T12:27:45.814Z,1.01
2023-05-01T12:28:45.843Z,0.98
2023-05-01T12:29:45.881Z,0.97
2023-05-01T12:30:45.982Z,0.98
2023-05-01T12:31:46.089Z,0.99
2023-05-01T12:32:46.164Z,1.02
2023-05-01T12:33:46.134Z,0.99
2023-05-01T12:34:46.229Z,1.00
2023-05-01T12:35:46.230Z,0.97
2023-05-01T12:36:46.293Z,0.99
2023-05-01T12:37:46.338Z,1.01
2023-05-01T12:38:46.453Z,1.02
2023-05-01T12:39:46.461Z,1.02
2023-05-01T12:40:46.574Z,1.01
2023-05-01T12:41:46.598Z,1.03
2023-05-01T12:42:46.687Z,1.01
2023-05-01T12:43:46.690Z,1.02
2023-05-01T12:44:46.789Z,1.01
2023-05-01T12:45:46.876Z,1.02
2023-05-01T12:46:46.888Z,0.99
2023-05-01T12:47:47.018Z,1.01
2023-05-01T12:48:46.994Z,1.01
2023-05-01T12:49:47.045Z,1.03
2023-05-01T12:50:48.140Z,1.02
2023-05-01T12:51:47.142Z,1.02
2023-05-01T12:52:47.161Z,1.02
2023-05-01T12:53:47.279Z,1.01
2023-05-01T12:54:47.333Z,0.99
2023-05-01T12:55:47.334Z,1.02
2023-05-01T12:56:47.388Z,1.00
2023-05-01T12:57:47.425Z,1.01
2023-05-01T12:58:47.514Z,0.99
2023-05-01T12:59:47.568Z,1.01
2023-05-01T13:00:47.573Z,1.02
2023-05-01T13:01:47.685Z,1.02
2023-05-01T13:02:47.742Z,1.03
2023-05-01T13:03:47.782Z,1.02
2023-05-01T13:04:47.755Z,1.03
2023-05-01T13:05:47.811Z,1.02
2023-05-01T13:06:47.986Z,1.03
2023-05-01T13:07:47.912Z,1.01
2023-05-01T13:12:53.999Z,0.50
2023-05-01T13:13:54.005Z,0.50
2023-05-01T13:14:53.986Z,0.50
2023-05-01T13:15:54.023Z,0.50
2023-05-01T13:16:54.026Z,0.50
2023-05-01T13:17:54.035Z,0.50
2023-05-01T13:18:53.975Z,0.50
2023-05-01T13:19:53.979Z,0.50
2023-05-01T13:20:54.003Z,0.51
2023-05-01T13:21:53.966Z,0.51
2023-05-01T13:22:53.996Z,0.50